createdAt,value
2018-06-03T00:00:33.168Z,21.16
2018-06-03T00:01:37.388Z,21.14
2018-06-03T00:02:41.616Z,21.14
2018-06-03T00:03:45.844Z,21.13
2018-06-03T00:04:50.108Z,21.10
2018-06-03T00:05:54.292Z,21.09
2018-06-03T00:06:58.516Z,21.08
2018-06-03T00:08:02.775Z,21.07
2018-06-03T00:09:07.192Z,21.06
2018-06-03T00:10:11.440Z,21.06
2018-06-03T00:11:15.667Z,21.05
2018-06-03T00:12:19.948Z,21.04
2018-06-03T00:13:24.180Z,21.05
2018-06-03T00:14:28.383Z,21.05
2018-06-03T00:15:32.904Z,21.06
2018-06-03T00:16:37.059Z,21.05
2018-06-03T00:17:41.533Z,21.05
2018-06-03T00:18:45.753Z,21.05
2018-06-03T00:19:50.493Z,21.05
2018-06-03T00:21:05.864Z,21.07
2018-06-03T00:22:15.471Z,21.06
2018-06-03T00:23:19.966Z,21.07
2018-06-03T00:24:24.259Z,21.08
2018-06-03T00:25:28.517Z,21.10
2018-06-03T00:26:32.768Z,21.11
2018-06-03T00:27:37.056Z,21.12
2018-06-03T00:28:41.278Z,21.14
2018-06-03T00:29:45.463Z,21.13
2018-06-03T00:30:50.111Z,21.14
2018-06-03T00:31:54.345Z,21.15
2018-06-03T00:32:58.560Z,21.16
2018-06-03T00:34:02.982Z,21.15
2018-06-03T00:35:07.183Z,21.15
2018-06-03T00:36:23.647Z,21.16
2018-06-03T00:37:27.902Z,21.15
2018-06-03T00:38:32.078Z,21.15
2018-06-03T00:39:36.319Z,21.15
2018-06-03T00:40:40.494Z,21.17
2018-06-03T00:41:44.784Z,21.16
2018-06-03T00:42:48.947Z,21.15
2018-06-03T00:43:53.141Z,21.16
2018-06-03T00:44:57.319Z,21.16
2018-06-03T00:46:02.283Z,21.16
2018-06-03T00:47:06.587Z,21.15
2018-06-03T00:48:10.796Z,21.15
2018-06-03T00:49:14.996Z,21.15
2018-06-03T00:50:19.220Z,21.15
2018-06-03T00:51:23.391Z,21.14
2018-06-03T00:52:27.560Z,21.14
2018-06-03T00:53:31.743Z,21.14
2018-06-03T00:54:35.928Z,21.13
2018-06-03T00:55:40.629Z,21.13
2018-06-03T00:56:55.973Z,21.13
2018-06-03T00:58:00.140Z,21.12
2018-06-03T00:59:04.713Z,21.11
2018-06-03T01:00:09.175Z,21.10
2018-06-03T01:01:13.375Z,21.11
2018-06-03T01:02:17.563Z,21.12
2018-06-03T01:03:21.768Z,21.10
2018-06-03T01:04:25.999Z,21.11
2018-06-03T01:05:30.196Z,21.11
2018-06-03T01:06:34.496Z,21.10
2018-06-03T01:07:38.717Z,21.11
2018-06-03T01:08:42.948Z,21.11
2018-06-03T01:09:47.211Z,21.11
2018-06-03T01:10:51.427Z,21.10
2018-06-03T01:11:55.664Z,21.11
2018-06-03T01:12:59.886Z,21.10
2018-06-03T01:14:04.393Z,21.09
2018-06-03T01:15:08.763Z,21.11
2018-06-03T01:16:12.977Z,21.11
2018-06-03T01:17:17.228Z,21.11
2018-06-03T01:18:21.432Z,21.12
2018-06-03T01:19:25.617Z,21.12
2018-06-03T01:20:29.835Z,21.13
2018-06-03T01:21:34.037Z,21.13
2018-06-03T01:22:38.233Z,21.13
2018-06-03T01:23:42.781Z,21.13
2018-06-03T01:24:46.966Z,21.13
2018-06-03T01:25:51.164Z,21.13
2018-06-03T01:26:55.407Z,21.13
2018-06-03T01:28:00.121Z,21.11
2018-06-03T01:29:04.343Z,21.12
2018-06-03T01:30:08.553Z,21.11
2018-06-03T01:31:12.963Z,21.09
2018-06-03T01:32:17.150Z,21.08
2018-06-03T01:33:21.375Z,21.08
2018-06-03T01:34:25.670Z,21.07
2018-06-03T01:35:29.854Z,21.07
2018-06-03T01:36:34.157Z,21.07
2018-06-03T01:37:38.445Z,21.06
2018-06-03T01:38:42.641Z,21.06
2018-06-03T01:39:46.835Z,21.06
2018-06-03T01:40:51.096Z,21.05
2018-06-03T01:41:55.276Z,21.06
2018-06-03T01:42:59.506Z,21.04
2018-06-03T01:44:03.757Z,21.04
2018-06-03T01:45:07.940Z,21.04
2018-06-03T01:46:12.140Z,21.04
2018-06-03T01:47:16.328Z,21.03
2018-06-03T01:48:20.648Z,21.02
2018-06-03T01:49:24.877Z,21.01
2018-06-03T01:50:29.415Z,21.00
2018-06-03T01:51:33.659Z,21.01
2018-06-03T01:52:37.916Z,21.01
2018-06-03T01:53:42.662Z,21.01
2018-06-03T01:54:46.964Z,21.00
2018-06-03T01:55:51.172Z,21.00
2018-06-03T01:56:55.345Z,20.99
2018-06-03T01:57:59.535Z,20.99
2018-06-03T01:59:03.777Z,20.99
2018-06-03T02:00:08.030Z,20.98
2018-06-03T02:01:12.218Z,20.98
2018-06-03T02:02:16.422Z,20.97
2018-06-03T02:03:20.613Z,20.97
2018-06-03T02:04:24.823Z,20.96
2018-06-03T02:05:29.123Z,20.95
2018-06-03T02:06:33.376Z,20.95
2018-06-03T02:07:37.553Z,20.95
2018-06-03T02:08:41.788Z,20.95
2018-06-03T02:09:45.961Z,20.95
2018-06-03T02:10:50.203Z,20.93
2018-06-03T02:11:54.385Z,20.93
2018-06-03T02:12:58.583Z,20.92
2018-06-03T02:14:02.776Z,20.92
2018-06-03T02:15:07.114Z,20.92
2018-06-03T02:16:11.609Z,20.91
2018-06-03T02:17:15.775Z,20.90
2018-06-03T02:18:19.963Z,20.91
2018-06-03T02:19:24.352Z,20.91
2018-06-03T02:20:28.540Z,20.92
2018-06-03T02:21:32.793Z,20.92
2018-06-03T02:22:36.979Z,20.91
2018-06-03T02:23:41.376Z,20.91
2018-06-03T02:24:45.951Z,20.91
2018-06-03T02:25:50.130Z,20.91
2018-06-03T02:26:54.367Z,20.92
2018-06-03T02:27:58.532Z,20.92
2018-06-03T02:29:02.741Z,20.92
2018-06-03T02:30:06.950Z,20.92
2018-06-03T02:31:11.116Z,20.93
2018-06-03T02:32:15.460Z,20.92
2018-06-03T02:33:19.631Z,20.92
2018-06-03T02:34:23.839Z,20.93
2018-06-03T02:35:28.072Z,20.94
2018-06-03T02:36:32.276Z,20.93
2018-06-03T02:37:36.496Z,20.94
2018-06-03T02:38:40.730Z,20.95
2018-06-03T02:39:44.919Z,20.94
2018-06-03T02:40:49.084Z,20.94
2018-06-03T02:41:53.277Z,20.94
2018-06-03T02:42:57.517Z,20.94
2018-06-03T02:44:01.724Z,20.93
2018-06-03T02:45:06.217Z,20.94
2018-06-03T02:46:10.411Z,20.93
2018-06-03T02:47:15.004Z,20.92
2018-06-03T02:48:19.317Z,20.92
2018-06-03T02:49:23.496Z,20.91
2018-06-03T02:50:28.467Z,20.90
2018-06-03T02:51:32.725Z,20.89
2018-06-03T02:52:36.951Z,20.89
2018-06-03T02:53:41.184Z,20.89
2018-06-03T02:54:45.362Z,20.87
2018-06-03T02:55:49.541Z,20.87
2018-06-03T02:56:53.758Z,20.87
2018-06-03T02:57:57.954Z,20.85
2018-06-03T02:59:02.184Z,20.85
2018-06-03T03:00:06.417Z,20.85
2018-06-03T03:01:10.668Z,20.85
2018-06-03T03:02:14.875Z,20.85
2018-06-03T03:03:19.078Z,20.85
2018-06-03T03:04:23.279Z,20.84
2018-06-03T03:05:27.499Z,20.84
2018-06-03T03:06:31.725Z,20.84
2018-06-03T03:07:36.055Z,20.84
2018-06-03T03:08:40.376Z,20.83
2018-06-03T03:09:44.557Z,20.82
2018-06-03T03:10:48.747Z,20.81
2018-06-03T03:11:52.917Z,20.81
2018-06-03T03:12:57.149Z,20.80
2018-06-03T03:14:01.340Z,20.80
2018-06-03T03:15:05.707Z,20.78
2018-06-03T03:16:09.870Z,20.80
2018-06-03T03:17:14.062Z,20.78
2018-06-03T03:18:18.273Z,20.78
2018-06-03T03:19:22.462Z,20.78
2018-06-03T03:20:26.680Z,20.77
2018-06-03T03:21:30.907Z,20.76
2018-06-03T03:22:35.108Z,20.76
2018-06-03T03:23:39.339Z,20.75
2018-06-03T03:24:43.520Z,20.75
2018-06-03T03:25:47.989Z,20.74
2018-06-03T03:26:52.185Z,20.73
2018-06-03T03:27:56.413Z,20.72
2018-06-03T03:29:00.591Z,20.71
2018-06-03T03:30:04.860Z,20.70
2018-06-03T03:31:09.114Z,20.71
2018-06-03T03:32:13.302Z,20.71
2018-06-03T03:33:17.487Z,20.71
2018-06-03T03:34:21.729Z,20.69
2018-06-03T03:35:25.948Z,20.69
2018-06-03T03:36:30.101Z,20.67
2018-06-03T03:37:34.296Z,20.66
2018-06-03T03:38:38.520Z,20.66
2018-06-03T03:39:42.829Z,20.63
2018-06-03T03:40:47.033Z,20.62
2018-06-03T03:41:51.236Z,20.61
2018-06-03T03:42:55.641Z,20.60
2018-06-03T03:43:59.830Z,20.59
2018-06-03T03:45:04.039Z,20.59
2018-06-03T03:46:08.223Z,20.59
2018-06-03T03:47:12.598Z,20.57
2018-06-03T03:48:16.875Z,20.57
2018-06-03T03:49:21.136Z,20.58
2018-06-03T03:50:25.392Z,20.56
2018-06-03T03:51:29.575Z,20.57
2018-06-03T03:52:33.837Z,20.55
2018-06-03T03:53:38.028Z,20.55
2018-06-03T03:54:42.304Z,20.54
2018-06-03T03:55:46.527Z,20.56
2018-06-03T03:56:50.760Z,20.55
2018-06-03T03:57:55.027Z,20.57
2018-06-03T03:58:59.292Z,20.57
2018-06-03T04:00:03.541Z,20.58
2018-06-03T04:01:07.736Z,20.59
2018-06-03T04:02:11.925Z,20.60
2018-06-03T04:03:16.408Z,20.62
2018-06-03T04:04:20.635Z,20.64
2018-06-03T04:05:24.834Z,20.64
2018-06-03T04:06:29.072Z,20.66
2018-06-03T04:07:33.582Z,20.66
2018-06-03T04:08:38.043Z,20.68
2018-06-03T04:09:42.634Z,20.69
2018-06-03T04:10:46.858Z,20.70
2018-06-03T04:11:51.040Z,20.72
2018-06-03T04:12:55.244Z,20.74
2018-06-03T04:13:59.456Z,20.75
2018-06-03T04:15:03.686Z,20.75
2018-06-03T04:16:08.302Z,20.77
2018-06-03T04:17:13.909Z,20.77
2018-06-03T04:18:18.093Z,20.78
2018-06-03T04:19:22.341Z,20.79
2018-06-03T04:20:26.800Z,20.78
2018-06-03T04:21:30.989Z,20.79
2018-06-03T04:22:35.244Z,20.78
2018-06-03T04:23:39.488Z,20.78
2018-06-03T04:24:43.709Z,20.78
2018-06-03T04:25:48.208Z,20.78
2018-06-03T04:26:52.428Z,20.78
2018-06-03T04:27:56.631Z,20.76
2018-06-03T04:29:01.051Z,20.76
2018-06-03T04:30:05.313Z,20.75
2018-06-03T04:31:09.532Z,20.74
2018-06-03T04:32:13.788Z,20.73
2018-06-03T04:33:18.152Z,20.72
2018-06-03T04:34:22.380Z,20.70
2018-06-03T04:35:26.604Z,20.70
2018-06-03T04:36:31.592Z,20.67
2018-06-03T04:37:35.783Z,20.67
2018-06-03T04:38:40.046Z,20.66
2018-06-03T04:39:44.260Z,20.64
2018-06-03T04:40:48.521Z,20.64
2018-06-03T04:41:52.805Z,20.63
2018-06-03T04:42:57.107Z,20.62
2018-06-03T04:44:01.423Z,20.60
2018-06-03T04:45:05.644Z,20.61
2018-06-03T04:46:10.552Z,20.60
2018-06-03T04:47:14.816Z,20.58
2018-06-03T04:48:19.010Z,20.59
2018-06-03T04:49:23.188Z,20.58
2018-06-03T04:50:27.934Z,20.57
2018-06-03T04:51:32.168Z,20.58
2018-06-03T04:52:36.401Z,20.58
2018-06-03T04:53:40.883Z,20.57
2018-06-03T04:54:45.120Z,20.59
2018-06-03T04:55:49.331Z,20.59
2018-06-03T04:56:53.563Z,20.59
2018-06-03T04:57:57.891Z,20.60
2018-06-03T04:59:02.145Z,20.61
2018-06-03T05:00:06.401Z,20.64
2018-06-03T05:01:10.601Z,20.66
2018-06-03T05:02:14.844Z,20.67
2018-06-03T05:03:19.049Z,20.70
2018-06-03T05:04:23.245Z,20.72
2018-06-03T05:05:27.407Z,20.73
2018-06-03T05:06:31.658Z,20.76
2018-06-03T05:07:35.875Z,20.78
2018-06-03T05:08:40.429Z,20.81
2018-06-03T05:09:44.643Z,20.83
2018-06-03T05:10:48.877Z,20.86
2018-06-03T05:11:53.208Z,20.89
2018-06-03T05:12:57.420Z,20.91
2018-06-03T05:14:01.600Z,20.94
2018-06-03T05:15:06.174Z,20.96
2018-06-03T05:16:10.468Z,20.96
2018-06-03T05:17:14.661Z,20.98
2018-06-03T05:18:18.969Z,21.00
2018-06-03T05:19:23.188Z,21.01
2018-06-03T05:20:27.391Z,21.02
2018-06-03T05:21:31.599Z,21.04
2018-06-03T05:22:35.839Z,21.04
2018-06-03T05:23:40.022Z,21.06
2018-06-03T05:24:44.233Z,21.08
2018-06-03T05:25:48.983Z,21.09
2018-06-03T05:26:53.191Z,21.10
2018-06-03T05:27:57.563Z,21.10
2018-06-03T05:29:01.804Z,21.12
2018-06-03T05:30:06.145Z,21.14
2018-06-03T05:31:10.452Z,21.15
2018-06-03T05:32:14.860Z,21.18
2018-06-03T05:33:19.188Z,21.21
2018-06-03T05:34:23.551Z,21.22
2018-06-03T05:35:28.010Z,21.23
2018-06-03T05:36:32.215Z,21.25
2018-06-03T05:37:36.427Z,21.25
2018-06-03T05:38:40.655Z,21.27
2018-06-03T05:39:44.960Z,21.28
2018-06-03T05:40:49.313Z,21.28
2018-06-03T05:41:53.596Z,21.29
2018-06-03T05:42:57.797Z,21.29
2018-06-03T05:44:02.008Z,21.30
2018-06-03T05:45:06.221Z,21.30
2018-06-03T05:46:10.424Z,21.30
2018-06-03T05:47:14.602Z,21.30
2018-06-03T05:48:18.824Z,21.31
2018-06-03T05:49:23.061Z,21.31
2018-06-03T05:50:27.299Z,21.33
2018-06-03T05:51:31.471Z,21.35
2018-06-03T05:52:35.755Z,21.37
2018-06-03T05:53:40.147Z,21.41
2018-06-03T05:54:44.324Z,21.42
2018-06-03T05:55:48.664Z,21.44
2018-06-03T05:56:52.847Z,21.52
2018-06-03T05:57:57.159Z,21.59
2018-06-03T05:59:01.417Z,21.68
2018-06-03T06:00:05.776Z,21.77
2018-06-03T06:01:10.019Z,21.87
2018-06-03T06:02:14.287Z,21.96
2018-06-03T06:03:18.501Z,22.04
2018-06-03T06:04:22.669Z,22.14
2018-06-03T06:05:27.172Z,22.23
2018-06-03T06:06:31.425Z,22.31
2018-06-03T06:07:35.652Z,22.40
2018-06-03T06:08:39.887Z,22.49
2018-06-03T06:09:44.107Z,22.54
2018-06-03T06:10:48.374Z,22.60
2018-06-03T06:11:52.647Z,22.63
2018-06-03T06:12:56.851Z,22.69
2018-06-03T06:14:01.035Z,22.72
2018-06-03T06:15:05.479Z,22.76
2018-06-03T06:16:09.692Z,22.81
2018-06-03T06:17:14.240Z,22.85
2018-06-03T06:18:18.443Z,22.89
2018-06-03T06:19:22.679Z,22.94
2018-06-03T06:20:26.872Z,22.99
2018-06-03T06:21:31.093Z,23.04
2018-06-03T06:22:35.311Z,23.08
2018-06-03T06:23:39.500Z,23.09
2018-06-03T06:24:43.695Z,23.13
2018-06-03T06:25:48.269Z,23.16
2018-06-03T06:26:52.507Z,23.18
2018-06-03T06:27:56.743Z,23.22
2018-06-03T06:29:00.950Z,23.25
2018-06-03T06:30:05.896Z,23.30
2018-06-03T06:31:10.132Z,23.33
2018-06-03T06:32:14.366Z,23.36
2018-06-03T06:33:18.834Z,23.38
2018-06-03T06:34:23.011Z,23.40
2018-06-03T06:35:27.297Z,23.38
2018-06-03T06:36:31.507Z,23.34
2018-06-03T06:37:35.717Z,23.32
2018-06-03T06:38:39.957Z,23.31
2018-06-03T06:39:44.123Z,23.28
2018-06-03T06:40:48.409Z,23.26
2018-06-03T06:41:52.564Z,23.26
2018-06-03T06:42:56.763Z,23.25
2018-06-03T06:44:00.995Z,23.26
2018-06-03T06:45:05.222Z,23.25
2018-06-03T06:46:09.424Z,23.26
2018-06-03T06:47:13.614Z,23.24
2018-06-03T06:48:17.822Z,23.25
2018-06-03T06:49:22.030Z,23.25
2018-06-03T06:50:26.256Z,23.26
2018-06-03T06:51:30.451Z,23.27
2018-06-03T06:52:34.696Z,23.29
2018-06-03T06:53:38.893Z,23.33
2018-06-03T06:54:43.157Z,23.34
2018-06-03T06:55:47.371Z,23.36
2018-06-03T06:56:51.605Z,23.41
2018-06-03T06:57:55.849Z,23.43
2018-06-03T06:59:00.055Z,23.46
2018-06-03T07:00:04.356Z,23.47
2018-06-03T07:01:08.551Z,23.47
2018-06-03T07:02:12.795Z,23.50
2018-06-03T07:03:17.021Z,23.50
2018-06-03T07:04:21.279Z,23.53
2018-06-03T07:05:25.534Z,23.52
2018-06-03T07:06:29.738Z,23.49
2018-06-03T07:07:33.946Z,23.50
2018-06-03T07:08:38.393Z,23.49
2018-06-03T07:09:42.659Z,23.48
2018-06-03T07:10:46.927Z,23.47
2018-06-03T07:11:52.123Z,23.48
2018-06-03T07:12:56.449Z,23.46
2018-06-03T07:14:00.639Z,23.43
2018-06-03T07:15:04.901Z,23.43
2018-06-03T07:16:09.152Z,23.43
2018-06-03T07:17:13.331Z,23.42
2018-06-03T07:18:17.520Z,23.43
2018-06-03T07:19:21.744Z,23.44
2018-06-03T07:20:25.927Z,23.49
2018-06-03T07:21:30.181Z,23.49
2018-06-03T07:22:34.444Z,23.51
2018-06-03T07:23:38.690Z,23.51
2018-06-03T07:24:44.963Z,23.51
2018-06-03T07:25:49.236Z,23.51
2018-06-03T07:26:53.524Z,23.50
2018-06-03T07:27:57.752Z,23.49
2018-06-03T07:29:01.931Z,23.50
2018-06-03T07:30:06.279Z,23.49
2018-06-03T07:31:10.576Z,23.48
2018-06-03T07:32:14.939Z,23.44
2018-06-03T07:33:19.189Z,23.42
2018-06-03T07:34:23.396Z,23.41
2018-06-03T07:35:27.886Z,23.39
2018-06-03T07:36:32.099Z,23.38
2018-06-03T07:37:36.376Z,23.38
2018-06-03T07:38:40.923Z,23.38
2018-06-03T07:39:45.156Z,23.38
2018-06-03T07:40:49.343Z,23.39
2018-06-03T07:41:53.743Z,23.39
2018-06-03T07:42:58.104Z,23.39
2018-06-03T07:44:02.341Z,23.39
2018-06-03T07:45:06.635Z,23.38
2018-06-03T07:46:10.923Z,23.38
2018-06-03T07:47:15.195Z,23.38
2018-06-03T07:48:19.408Z,23.38
2018-06-03T07:49:23.670Z,23.38
2018-06-03T07:50:28.511Z,23.38
2018-06-03T07:51:32.651Z,23.38
2018-06-03T07:52:36.901Z,23.36
2018-06-03T07:53:41.164Z,23.34
2018-06-03T07:54:45.362Z,23.35
2018-06-03T07:55:49.551Z,23.35
2018-06-03T07:56:53.787Z,23.36
2018-06-03T07:57:57.981Z,23.38
2018-06-03T07:59:02.221Z,23.39
2018-06-03T08:00:06.486Z,23.41
2018-06-03T08:01:10.685Z,23.43
2018-06-03T08:03:17.911Z,23.48
2018-06-03T08:04:22.159Z,23.50
2018-06-03T08:05:26.609Z,23.54
2018-06-03T08:06:30.867Z,23.57
2018-06-03T08:07:35.069Z,23.61
2018-06-03T08:08:39.295Z,23.64
2018-06-03T08:09:43.823Z,23.67
2018-06-03T08:10:48.058Z,23.72
2018-06-03T08:11:52.366Z,23.73
2018-06-03T08:12:56.555Z,23.76
2018-06-03T08:14:00.742Z,23.78
2018-06-03T08:15:05.033Z,23.80
2018-06-03T08:16:09.257Z,23.83
2018-06-03T08:17:13.450Z,23.86
2018-06-03T08:18:17.658Z,23.86
2018-06-03T08:19:21.891Z,23.86
2018-06-03T08:20:26.485Z,23.88
2018-06-03T08:21:30.707Z,23.89
2018-06-03T08:22:34.927Z,23.90
2018-06-03T08:23:39.135Z,23.89
2018-06-03T08:24:43.323Z,23.89
2018-06-03T08:25:47.556Z,23.89
2018-06-03T08:26:52.020Z,23.90
2018-06-03T08:27:56.212Z,23.91
2018-06-03T08:29:00.448Z,23.94
2018-06-03T08:30:04.870Z,23.94
2018-06-03T08:31:09.160Z,23.95
2018-06-03T08:32:13.549Z,23.97
2018-06-03T08:33:17.805Z,23.97
2018-06-03T08:34:22.013Z,23.99
2018-06-03T08:35:26.181Z,24.00
2018-06-03T08:36:30.382Z,24.01
2018-06-03T08:37:34.607Z,24.02
2018-06-03T08:38:38.802Z,24.03
2018-06-03T08:39:42.983Z,24.04
2018-06-03T08:40:47.307Z,24.06
2018-06-03T08:41:51.549Z,24.08
2018-06-03T08:42:55.772Z,24.12
2018-06-03T08:44:00.032Z,24.17
2018-06-03T08:45:04.257Z,24.19
2018-06-03T08:46:08.468Z,24.22
2018-06-03T08:47:12.873Z,24.25
2018-06-03T08:48:17.052Z,24.26
2018-06-03T08:49:21.228Z,24.29
2018-06-03T08:50:25.461Z,24.31
2018-06-03T08:51:29.657Z,24.35
2018-06-03T08:52:33.871Z,24.40
2018-06-03T08:53:38.302Z,24.44
2018-06-03T08:54:42.579Z,24.46
2018-06-03T08:55:46.784Z,24.46
2018-06-03T08:56:50.987Z,24.47
2018-06-03T08:57:55.207Z,24.49
2018-06-03T08:58:59.409Z,24.52
2018-06-03T09:00:03.673Z,24.54
2018-06-03T09:01:08.304Z,24.56
2018-06-03T09:02:12.743Z,24.60
2018-06-03T09:03:16.979Z,24.62
2018-06-03T09:04:21.176Z,24.62
2018-06-03T09:05:25.438Z,24.61
2018-06-03T09:06:29.608Z,24.60
2018-06-03T09:07:34.344Z,24.60
2018-06-03T09:08:38.635Z,24.57
2018-06-03T09:09:42.900Z,24.55
2018-06-03T09:10:47.122Z,24.52
2018-06-03T09:11:51.329Z,24.52
2018-06-03T09:12:55.551Z,24.53
2018-06-03T09:13:59.812Z,24.55
2018-06-03T09:15:04.091Z,24.59
2018-06-03T09:16:08.328Z,24.61
2018-06-03T09:17:12.557Z,24.67
2018-06-03T09:18:16.765Z,24.71
2018-06-03T09:19:21.176Z,24.75
2018-06-03T09:20:25.363Z,24.80
2018-06-03T09:21:29.556Z,24.83
2018-06-03T09:22:33.766Z,24.87
2018-06-03T09:23:37.975Z,24.93
2018-06-03T09:24:42.364Z,24.96
2018-06-03T09:25:46.549Z,24.97
2018-06-03T09:26:50.980Z,25.01
2018-06-03T09:27:55.212Z,25.02
2018-06-03T09:28:59.416Z,25.03
2018-06-03T09:30:03.818Z,25.02
2018-06-03T09:31:08.243Z,24.98
2018-06-03T09:32:12.515Z,24.95
2018-06-03T09:33:16.715Z,24.93
2018-06-03T09:34:20.938Z,24.93
2018-06-03T09:35:25.648Z,24.91
2018-06-03T09:36:29.917Z,24.92
2018-06-03T09:37:34.113Z,24.90
2018-06-03T09:38:38.329Z,24.86
2018-06-03T09:39:42.625Z,24.85
2018-06-03T09:40:46.848Z,24.85
2018-06-03T09:41:51.088Z,24.84
2018-06-03T09:42:55.414Z,24.86
2018-06-03T09:43:59.624Z,24.86
2018-06-03T09:45:03.903Z,24.87
2018-06-03T09:46:08.245Z,24.87
2018-06-03T09:47:12.552Z,24.87
2018-06-03T09:48:16.820Z,24.90
2018-06-03T09:49:21.091Z,24.92
2018-06-03T09:50:25.486Z,24.95
2018-06-03T09:51:29.880Z,24.95
2018-06-03T09:52:34.115Z,24.99
2018-06-03T09:53:38.320Z,25.03
2018-06-03T09:54:42.527Z,25.07
2018-06-03T09:55:46.781Z,25.12
2018-06-03T09:56:51.080Z,25.17
2018-06-03T09:57:55.281Z,25.21
2018-06-03T09:58:59.519Z,25.25
2018-06-03T10:00:04.024Z,25.26
2018-06-03T10:01:08.224Z,25.27
2018-06-03T10:02:12.510Z,25.30
2018-06-03T10:03:16.725Z,25.31
2018-06-03T10:04:20.958Z,25.30
2018-06-03T10:05:25.159Z,25.30
2018-06-03T10:06:29.365Z,25.30
2018-06-03T10:07:33.680Z,25.29
2018-06-03T10:08:37.909Z,25.30
2018-06-03T10:09:42.103Z,25.30
2018-06-03T10:10:46.313Z,25.31
2018-06-03T10:11:50.701Z,25.34
2018-06-03T10:12:54.954Z,25.36
2018-06-03T10:13:59.155Z,25.34
2018-06-03T10:15:03.421Z,25.33
2018-06-03T10:16:07.724Z,25.28
2018-06-03T10:17:11.984Z,25.25
2018-06-03T10:18:16.246Z,25.23
2018-06-03T10:19:20.447Z,25.22
2018-06-03T10:20:24.726Z,25.21
2018-06-03T10:21:29.099Z,25.21
2018-06-03T10:22:33.349Z,25.19
2018-06-03T10:23:37.599Z,25.15
2018-06-03T10:24:41.832Z,25.13
2018-06-03T10:25:46.062Z,25.13
2018-06-03T10:26:50.391Z,25.14
2018-06-03T10:27:54.932Z,25.16
2018-06-03T10:28:59.237Z,25.17
2018-06-03T10:30:03.752Z,25.20
2018-06-03T10:31:08.013Z,25.24
2018-06-03T10:32:12.312Z,25.25
2018-06-03T10:33:16.545Z,25.24
2018-06-03T10:34:20.780Z,25.24
2018-06-03T10:35:24.997Z,25.26
2018-06-03T10:36:29.196Z,25.27
2018-06-03T10:37:33.443Z,25.29
2018-06-03T10:38:37.685Z,25.30
2018-06-03T10:39:41.958Z,25.30
2018-06-03T10:40:46.212Z,25.29
2018-06-03T10:41:50.444Z,25.30
2018-06-03T10:42:54.873Z,25.31
2018-06-03T10:43:59.314Z,25.32
2018-06-03T10:45:03.752Z,25.36
2018-06-03T10:46:08.032Z,25.39
2018-06-03T10:47:12.270Z,25.41
2018-06-03T10:48:16.548Z,25.43
2018-06-03T10:49:20.747Z,25.43
2018-06-03T10:50:24.964Z,25.43
2018-06-03T10:51:29.196Z,25.43
2018-06-03T10:52:33.438Z,25.42
2018-06-03T10:53:37.663Z,25.39
2018-06-03T10:54:41.880Z,25.38
2018-06-03T10:55:46.176Z,25.35
2018-06-03T10:56:50.552Z,25.32
2018-06-03T10:57:54.787Z,25.30
2018-06-03T10:58:59.144Z,25.28
2018-06-03T11:00:03.449Z,25.26
2018-06-03T11:01:07.676Z,25.25
2018-06-03T11:02:11.960Z,25.24
2018-06-03T11:03:16.204Z,25.25
2018-06-03T11:04:20.476Z,25.25
2018-06-03T11:05:24.615Z,25.25
2018-06-03T11:06:28.821Z,25.24
2018-06-03T11:07:33.028Z,25.24
2018-06-03T11:08:37.351Z,25.25
2018-06-03T11:09:41.546Z,25.25
2018-06-03T11:10:45.728Z,25.24
2018-06-03T11:11:49.950Z,25.23
2018-06-03T11:12:54.344Z,25.23
2018-06-03T11:13:58.549Z,25.23
2018-06-03T11:15:02.788Z,25.24
2018-06-03T11:16:06.965Z,25.26
2018-06-03T11:17:11.275Z,25.27
2018-06-03T11:18:15.503Z,25.29
2018-06-03T11:19:19.940Z,25.33
2018-06-03T11:20:24.143Z,25.35
2018-06-03T11:21:28.368Z,25.38
2018-06-03T11:22:32.657Z,25.43
2018-06-03T11:23:36.864Z,25.49
2018-06-03T11:24:41.089Z,25.52
2018-06-03T11:25:51.738Z,25.57
2018-06-03T11:26:55.929Z,25.59
2018-06-03T11:28:00.511Z,25.63
2018-06-03T11:29:04.798Z,25.64
2018-06-03T11:30:09.027Z,25.67
2018-06-03T11:31:13.260Z,25.67
2018-06-03T11:32:17.491Z,25.69
2018-06-03T11:33:21.828Z,25.69
2018-06-03T11:34:26.040Z,25.66
2018-06-03T11:35:30.214Z,25.62
2018-06-03T11:36:34.393Z,25.57
2018-06-03T11:37:38.598Z,25.53
2018-06-03T11:38:42.832Z,25.49
2018-06-03T11:39:47.013Z,25.45
2018-06-03T11:40:51.360Z,25.45
2018-06-03T11:41:55.836Z,25.46
2018-06-03T11:43:00.029Z,25.48
2018-06-03T11:44:04.430Z,25.49
2018-06-03T11:45:08.631Z,25.50
2018-06-03T11:46:19.420Z,25.50
2018-06-03T11:47:23.652Z,25.49
2018-06-03T11:48:27.868Z,25.46
2018-06-03T11:49:32.071Z,25.46
2018-06-03T11:50:36.277Z,25.48
2018-06-03T11:51:40.476Z,25.47
2018-06-03T11:52:44.777Z,25.49
2018-06-03T11:53:48.980Z,25.53
2018-06-03T11:54:53.215Z,25.58
2018-06-03T11:55:57.385Z,25.62
2018-06-03T11:57:02.830Z,25.66
2018-06-03T11:58:43.270Z,25.72
2018-06-03T11:59:47.474Z,25.77
2018-06-03T12:00:51.683Z,25.81
2018-06-03T12:01:55.925Z,25.84
2018-06-03T12:03:00.500Z,25.89
2018-06-03T12:04:05.199Z,25.95
2018-06-03T12:05:09.444Z,26.01
2018-06-03T12:06:13.705Z,26.07
2018-06-03T12:07:17.914Z,26.08
2018-06-03T12:08:22.124Z,26.10
2018-06-03T12:09:26.539Z,26.10
2018-06-03T12:10:30.727Z,26.11
2018-06-03T12:11:35.032Z,26.12
2018-06-03T12:12:39.226Z,26.13
2018-06-03T12:13:43.428Z,26.15
2018-06-03T12:14:47.631Z,26.18
2018-06-03T12:15:51.860Z,26.21
2018-06-03T12:16:56.144Z,26.22
2018-06-03T12:18:00.341Z,26.26
2018-06-03T12:19:04.557Z,26.31
2018-06-03T12:20:08.735Z,26.35
2018-06-03T12:21:12.924Z,26.38
2018-06-03T12:22:17.132Z,26.41
2018-06-03T12:23:21.315Z,26.45
2018-06-03T12:24:25.536Z,26.48
2018-06-03T12:25:29.752Z,26.50
2018-06-03T12:26:34.176Z,26.50
2018-06-03T12:27:38.404Z,26.52
2018-06-03T12:28:43.026Z,26.55
2018-06-03T12:29:47.177Z,26.57
2018-06-03T12:30:51.376Z,26.59
2018-06-03T12:31:55.583Z,26.62
2018-06-03T12:32:59.777Z,26.67
2018-06-03T12:34:03.948Z,26.72
2018-06-03T12:35:08.120Z,26.78
2018-06-03T12:36:12.391Z,26.82
2018-06-03T12:37:16.561Z,26.88
2018-06-03T12:38:20.790Z,26.93
2018-06-03T12:39:25.113Z,26.96
2018-06-03T12:40:29.381Z,26.98
2018-06-03T12:41:33.587Z,26.98
2018-06-03T12:42:37.848Z,26.97
2018-06-03T12:43:42.063Z,26.98
2018-06-03T12:44:46.311Z,27.00
2018-06-03T12:45:50.708Z,27.01
2018-06-03T12:46:54.982Z,27.00
2018-06-03T12:47:59.319Z,26.99
2018-06-03T12:49:03.660Z,26.98
2018-06-03T12:50:07.896Z,27.00
2018-06-03T12:51:12.068Z,27.01
2018-06-03T12:52:16.262Z,27.01
2018-06-03T12:53:20.428Z,27.02
2018-06-03T12:54:24.717Z,27.01
2018-06-03T12:55:29.162Z,27.03
2018-06-03T12:56:33.443Z,27.02
2018-06-03T12:57:37.655Z,27.01
2018-06-03T12:58:41.906Z,27.00
2018-06-03T12:59:46.129Z,26.99
2018-06-03T13:00:50.332Z,26.97
2018-06-03T13:01:54.583Z,26.96
2018-06-03T13:02:58.919Z,26.96
2018-06-03T13:04:03.235Z,26.96
2018-06-03T13:05:07.459Z,26.98
2018-06-03T13:06:11.672Z,27.02
2018-06-03T13:07:15.884Z,27.05
2018-06-03T13:08:20.154Z,27.06
2018-06-03T13:09:24.378Z,27.06
2018-06-03T13:10:28.608Z,27.05
2018-06-03T13:11:33.061Z,27.04
2018-06-03T13:12:37.307Z,27.02
2018-06-03T13:13:41.521Z,27.02
2018-06-03T13:14:45.717Z,27.03
2018-06-03T13:15:50.018Z,27.05
2018-06-03T13:16:54.447Z,27.08
2018-06-03T13:17:58.681Z,27.11
2018-06-03T13:19:02.904Z,27.14
2018-06-03T13:20:07.311Z,27.16
2018-06-03T13:21:11.524Z,27.18
2018-06-03T13:22:16.078Z,27.17
2018-06-03T13:23:20.324Z,27.18
2018-06-03T13:24:24.486Z,27.18
2018-06-03T13:25:28.722Z,27.18
2018-06-03T13:26:33.016Z,27.18
2018-06-03T13:27:37.467Z,27.20
2018-06-03T13:28:41.694Z,27.22
2018-06-03T13:29:45.938Z,27.21
2018-06-03T13:30:50.192Z,27.19
2018-06-03T13:31:54.493Z,27.18
2018-06-03T13:32:58.746Z,27.18
2018-06-03T13:34:02.980Z,27.18
2018-06-03T13:35:07.228Z,27.19
2018-06-03T13:36:11.480Z,27.20
2018-06-03T13:37:15.824Z,27.22
2018-06-03T13:38:20.211Z,27.25
2018-06-03T13:39:24.433Z,27.29
2018-06-03T13:40:28.648Z,27.35
2018-06-03T13:41:32.824Z,27.40
2018-06-03T13:42:37.237Z,27.48
2018-06-03T13:43:41.442Z,27.53
2018-06-03T13:44:45.619Z,27.57
2018-06-03T13:45:49.852Z,27.61
2018-06-03T13:46:54.037Z,27.63
2018-06-03T13:47:58.280Z,27.66
2018-06-03T13:49:02.531Z,27.66
2018-06-03T13:50:07.081Z,27.69